Time;durP1;ratioP1;P1;durP2;ratioP2;P2;SDS_P1;SDS_P2;PMS_P1;PMS_P2;Temp;Humidity;BMP_temperature;BMP_pressure;BME280_temperature;BME280_humidity;BME280_pressure;Samples;Min_cycle;Max_cycle;Signal;HPM_P1;HPM_P2
2021/03/24 00:01:27;;;;;;;15.27;10.10;;;-0.40;99.90;;;;;;5075548;28;20208;-93
2021/03/24 00:03:54;;;;;;;16.27;11.10;;;-0.40;99.90;;;;;;5075358;28;20207;-92
2021/03/24 00:06:21;;;;;;;16.42;10.77;;;-0.40;99.90;;;;;;5075898;28;20204;-93
2021/03/24 00:08:47;;;;;;;15.90;10.98;;;-0.40;99.90;;;;;;5076765;28;20216;-92
2021/03/24 00:11:15;;;;;;;19.17;11.25;;;-0.50;99.90;;;;;;5077170;28;20204;-92
2021/03/24 00:13:42;;;;;;;14.60;10.10;;;-0.50;99.90;;;;;;5093485;28;20212;-92
2021/03/24 00:16:11;;;;;;;15.95;10.82;;;-0.50;99.90;;;;;;5089864;28;20295;-94
2021/03/24 00:18:39;;;;;;;14.60;10.27;;;-0.50;99.90;;;;;;5078095;28;20343;-93
2021/03/24 00:21:06;;;;;;;15.88;10.35;;;-0.50;99.90;;;;;;5077362;28;20201;-93
2021/03/24 00:23:32;;;;;;;16.00;10.38;;;-0.50;99.90;;;;;;5076837;28;20200;-93
2021/03/24 00:25:59;;;;;;;15.45;10.70;;;-0.40;99.90;;;;;;5076621;28;20212;-94
2021/03/24 00:28:26;;;;;;;15.68;11.50;;;-0.40;99.90;;;;;;5075573;28;20299;-93
2021/03/24 00:30:53;;;;;;;17.10;10.50;;;-0.50;99.90;;;;;;5074213;28;20273;-93
2021/03/24 00:33:22;;;;;;;14.90;9.98;;;-0.50;99.90;;;;;;5077683;28;20224;-93
2021/03/24 00:35:50;;;;;;;15.38;10.07;;;-0.50;99.90;;;;;;5076958;28;20220;-93
2021/03/24 00:38:20;;;;;;;17.67;10.35;;;-0.50;99.90;;;;;;5079257;28;20705;-94
2021/03/24 00:40:49;;;;;;;17.88;10.93;;;-0.60;99.90;;;;;;5077273;28;20303;-94
2021/03/24 00:43:15;;;;;;;12.02;9.20;;;-0.60;99.90;;;;;;5075813;28;20203;-93
2021/03/24 00:45:43;;;;;;;16.08;11.00;;;-0.60;99.90;;;;;;5074213;28;20287;-92
2021/03/24 00:48:17;;;;;;;18.88;11.48;;;-0.70;99.90;;;;;;5074344;28;20220;-93
2021/03/24 00:50:44;;;;;;;18.40;11.43;;;-0.70;99.90;;;;;;5073918;28;20235;-92
2021/03/24 00:53:12;;;;;;;16.25;10.50;;;-0.70;99.90;;;;;;5073865;28;20269;-93
2021/03/24 00:55:39;;;;;;;17.08;11.48;;;-0.70;99.90;;;;;;5074634;28;20626;-93
2021/03/24 00:58:05;;;;;;;16.27;10.70;;;-0.60;99.90;;;;;;5074197;28;20227;-92
2021/03/24 01:00:34;;;;;;;15.15;10.70;;;-0.60;99.90;;;;;;5074130;28;20668;-92
2021/03/24 01:03:01;;;;;;;11.98;10.23;;;-0.70;99.90;;;;;;5075553;28;20611;-93
2021/03/24 01:05:28;;;;;;;17.48;11.13;;;-0.70;99.90;;;;;;5075540;28;20208;-92
2021/03/24 01:07:56;;;;;;;17.08;11.38;;;-0.70;99.90;;;;;;5074845;28;20228;-92
2021/03/24 01:10:26;;;;;;;16.45;10.00;;;-0.80;99.90;;;;;;5073734;28;20314;-93
2021/03/24 01:12:53;;;;;;;16.65;11.10;;;-0.70;99.90;;;;;;5074456;28;20216;-92
2021/03/24 01:15:20;;;;;;;15.38;9.90;;;-0.70;99.90;;;;;;5074450;28;20700;-92
2021/03/24 01:17:46;;;;;;;17.88;11.02;;;-0.80;99.90;;;;;;5073797;28;20708;-92
2021/03/24 01:20:15;;;;;;;17.15;11.95;;;-0.80;99.90;;;;;;5073767;28;20292;-93
2021/03/24 01:22:41;;;;;;;16.20;11.82;;;-0.80;99.90;;;;;;5074360;28;20286;-93
2021/03/24 01:25:09;;;;;;;18.40;11.52;;;-0.70;99.90;;;;;;5074310;28;20204;-93
2021/03/24 01:27:36;;;;;;;19.17;11.65;;;-0.70;99.90;;;;;;5073866;28;20311;-93
2021/03/24 01:30:05;;;;;;;21.27;12.15;;;-0.80;99.90;;;;;;5075912;28;20209;-93
2021/03/24 01:32:32;;;;;;;27.08;12.45;;;-0.90;99.90;;;;;;5077680;28;20333;-89
2021/03/24 01:34:59;;;;;;;14.35;10.93;;;-0.90;99.90;;;;;;5078691;28;20204;-93
2021/03/24 01:37:26;;;;;;;14.18;10.43;;;-1.00;99.90;;;;;;5083035;28;20220;-93
2021/03/24 01:39:53;;;;;;;14.48;9.85;;;-1.00;99.90;;;;;;5082696;28;20205;-93
2021/03/24 01:42:19;;;;;;;16.92;11.38;;;-1.00;99.90;;;;;;5080901;28;20204;-93
2021/03/24 01:45:08;;;;;;;16.08;10.60;;;-1.00;99.90;;;;;;5078115;28;20216;-93
2021/03/24 01:47:35;;;;;;;17.85;11.73;;;-1.00;99.90;;;;;;5078125;28;20304;-91
2021/03/24 01:50:03;;;;;;;17.80;10.52;;;-1.00;99.90;;;;;;5077744;28;20200;-93
2021/03/24 01:52:30;;;;;;;17.10;11.25;;;-1.00;99.90;;;;;;5077778;28;20273;-93
2021/03/24 01:54:56;;;;;;;14.85;10.25;;;-1.00;99.90;;;;;;5077867;28;20644;-93
2021/03/24 01:57:26;;;;;;;13.57;10.10;;;-1.10;99.90;;;;;;5078102;28;20251;-92
2021/03/24 01:59:54;;;;;;;14.73;9.75;;;-1.00;99.90;;;;;;5077974;28;20210;-92
2021/03/24 02:02:26;;;;;;;14.82;11.15;;;-1.10;99.90;;;;;;5079131;28;20208;-93
2021/03/24 02:04:52;;;;;;;15.90;11.20;;;-1.10;99.90;;;;;;5078193;28;20215;-93
2021/03/24 02:07:23;;;;;;;15.95;10.30;;;-1.10;99.90;;;;;;5077953;28;20232;-92
2021/03/24 02:09:57;;;;;;;20.15;11.98;;;-1.10;99.90;;;;;;5078701;28;20200;-92
2021/03/24 02:12:28;;;;;;;19.90;11.15;;;-1.10;99.90;;;;;;5082502;28;20283;-92
2021/03/24 02:14:58;;;;;;;14.55;10.38;;;-1.20;99.90;;;;;;5084151;28;20210;-91
2021/03/24 02:17:28;;;;;;;23.67;11.93;;;-1.20;99.90;;;;;;5099867;28;20251;-92
2021/03/24 02:20:06;;;;;;;13.90;9.73;;;-1.20;99.90;;;;;;5100745;28;20212;-94
2021/03/24 02:22:38;;;;;;;17.80;10.77;;;-1.20;99.90;;;;;;5101100;28;20248;-93
2021/03/24 02:25:08;;;;;;;16.75;11.30;;;-1.20;99.90;;;;;;5101104;28;20231;-94
2021/03/24 02:27:39;;;;;;;18.85;12.45;;;-1.10;99.90;;;;;;5100377;28;20239;-93
2021/03/24 02:30:11;;;;;;;18.67;12.25;;;-1.10;99.90;;;;;;5099852;28;20184;-94
2021/03/24 02:32:42;;;;;;;13.02;9.60;;;-1.10;99.90;;;;;;5099969;28;20208;-94
2021/03/24 02:35:13;;;;;;;15.63;11.23;;;-1.00;99.90;;;;;;5099614;28;20204;-95
2021/03/24 02:37:41;;;;;;;14.43;9.73;;;-1.00;99.90;;;;;;5098577;28;20255;-91
2021/03/24 02:40:11;;;;;;;13.88;9.93;;;-1.00;99.90;;;;;;5098006;28;20252;-94
2021/03/24 02:45:32;;;;;;;17.08;10.90;;;-1.20;99.90;;;;;;5098161;28;20185;-93
2021/03/24 02:48:02;;;;;;;16.42;11.15;;;-1.30;99.90;;;;;;5097647;28;20231;-92
2021/03/24 02:50:30;;;;;;;18.40;11.32;;;-1.30;99.90;;;;;;5096775;28;20232;-92
2021/03/24 02:53:00;;;;;;;18.52;10.30;;;-1.30;99.90;;;;;;5096664;28;20295;-93
2021/03/24 02:55:28;;;;;;;14.38;11.38;;;-1.20;99.90;;;;;;5098439;28;20208;-93
2021/03/24 02:57:55;;;;;;;15.48;11.00;;;-1.30;99.90;;;;;;5099185;28;20280;-92
2021/03/24 03:00:24;;;;;;;16.98;10.75;;;-1.30;99.90;;;;;;5098427;28;20195;-93
2021/03/24 03:03:02;;;;;;;15.65;10.60;;;-1.30;99.90;;;;;;5098719;28;20280;-93
2021/03/24 03:05:35;;;;;;;20.88;10.52;;;-1.30;99.90;;;;;;5098206;28;20198;-92
2021/03/24 03:08:08;;;;;;;23.27;12.35;;;-1.30;99.90;;;;;;5095308;28;20211;-94
2021/03/24 03:10:40;;;;;;;21.05;11.63;;;-1.30;99.90;;;;;;5094431;28;20352;-91
2021/03/24 03:13:13;;;;;;;14.75;11.20;;;-1.40;99.90;;;;;;5091349;28;20280;-93
2021/03/24 03:15:46;;;;;;;16.13;10.55;;;-1.40;99.90;;;;;;5090980;28;20214;-91
2021/03/24 03:18:19;;;;;;;15.65;11.07;;;-1.50;99.90;;;;;;5083674;28;20224;-92
2021/03/24 03:20:50;;;;;;;14.63;10.90;;;-1.50;99.90;;;;;;5076512;28;20208;-92
2021/03/24 03:23:21;;;;;;;17.83;10.32;;;-1.50;99.90;;;;;;5078978;28;20224;-92
2021/03/24 03:25:55;;;;;;;26.17;11.68;;;-1.50;99.90;;;;;;5076661;28;20215;-92
2021/03/24 03:28:24;;;;;;;20.15;11.90;;;-1.50;99.90;;;;;;5074944;28;20311;-93
2021/03/24 03:30:53;;;;;;;14.85;10.95;;;-1.50;99.90;;;;;;5075152;28;20619;-92
2021/03/24 03:33:23;;;;;;;17.70;11.10;;;-1.50;99.90;;;;;;5075829;28;20225;-92
2021/03/24 03:35:52;;;;;;;17.83;11.50;;;-1.50;99.90;;;;;;5075323;28;20578;-92
2021/03/24 03:38:20;;;;;;;18.23;12.07;;;-1.50;99.90;;;;;;5075381;28;20303;-92
2021/03/24 03:40:48;;;;;;;20.08;12.55;;;-1.50;99.90;;;;;;5075287;28;20203;-92
2021/03/24 03:43:17;;;;;;;18.77;11.57;;;-1.50;99.90;;;;;;5075985;28;20745;-92
2021/03/24 03:45:47;;;;;;;20.40;12.60;;;-1.50;99.90;;;;;;5075182;28;20208;-93
2021/03/24 03:48:16;;;;;;;18.30;11.65;;;-1.60;99.90;;;;;;5075225;28;20697;-93
2021/03/24 03:50:44;;;;;;;21.15;11.52;;;-1.60;99.90;;;;;;5075670;28;20204;-93
2021/03/24 03:53:18;;;;;;;19.17;11.63;;;-1.60;99.90;;;;;;5075292;28;20232;-94
2021/03/24 03:55:50;;;;;;;17.13;11.25;;;-1.60;99.90;;;;;;5077068;28;20208;-92
2021/03/24 03:58:29;;;;;;;18.15;12.05;;;-1.60;99.90;;;;;;5078125;28;20311;-93
2021/03/24 04:01:07;;;;;;;22.05;12.48;;;-1.60;99.90;;;;;;5078696;28;20267;-92
2021/03/24 04:03:36;;;;;;;22.25;11.85;;;-1.60;99.90;;;;;;5078195;28;20234;-91
2021/03/24 04:06:07;;;;;;;15.30;10.95;;;-1.60;99.90;;;;;;5075183;28;20307;-92
2021/03/24 04:08:35;;;;;;;18.48;12.70;;;-1.60;99.90;;;;;;5074927;28;20235;-92
2021/03/24 04:11:05;;;;;;;16.98;11.75;;;-1.60;99.90;;;;;;5074727;28;20212;-92
2021/03/24 04:13:34;;;;;;;14.82;10.55;;;-1.60;99.90;;;;;;5074575;28;20230;-92
2021/03/24 04:16:03;;;;;;;18.33;11.90;;;-1.60;99.90;;;;;;5074382;28;20646;-91
2021/03/24 04:18:34;;;;;;;18.77;11.60;;;-1.70;99.90;;;;;;5074076;28;20284;-92
2021/03/24 04:21:03;;;;;;;16.92;11.73;;;-1.70;99.90;;;;;;5074325;28;20257;-91
2021/03/24 04:23:34;;;;;;;18.55;11.55;;;-1.70;99.90;;;;;;5075077;28;20671;-91
2021/03/24 04:26:06;;;;;;;16.05;11.25;;;-1.70;99.90;;;;;;5074517;28;20201;-92
2021/03/24 04:28:38;;;;;;;20.15;12.60;;;-1.70;99.90;;;;;;5074800;28;20232;-93
2021/03/24 04:31:32;;;;;;;20.10;11.98;;;-1.70;99.90;;;;;;5074474;28;20666;-94
2021/03/24 04:34:51;;;;;;;17.38;11.55;;;-1.80;99.90;;;;;;5074730;28;20314;-93
2021/03/24 04:37:25;;;;;;;18.80;11.60;;;-1.70;99.90;;;;;;5065008;22;20573;-75
2021/03/24 04:39:55;;;;;;;15.98;10.85;;;-1.80;99.90;;;;;;5089699;28;20249;-75
2021/03/24 04:42:25;;;;;;;18.00;11.98;;;-1.80;99.90;;;;;;5090285;28;20219;-74
2021/03/24 04:44:56;;;;;;;19.00;11.13;;;-1.70;99.90;;;;;;5090163;28;20677;-75
2021/03/24 04:47:26;;;;;;;16.88;11.90;;;-1.80;99.90;;;;;;5090188;28;20199;-72
2021/03/24 04:49:56;;;;;;;19.13;11.68;;;-1.80;99.90;;;;;;5089731;28;20288;-73
2021/03/24 04:52:24;;;;;;;16.98;10.82;;;-1.80;99.90;;;;;;5090041;28;20234;-72
2021/03/24 04:54:53;;;;;;;20.67;12.43;;;-1.80;99.90;;;;;;5090167;28;20253;-74
2021/03/24 04:57:23;;;;;;;16.38;11.90;;;-1.80;99.90;;;;;;5090246;28;20245;-73
2021/03/24 04:59:54;;;;;;;15.38;11.20;;;-1.80;99.90;;;;;;5092122;28;20203;-73
2021/03/24 05:02:24;;;;;;;18.20;12.13;;;-1.90;99.90;;;;;;5089180;28;20555;-73
2021/03/24 05:04:53;;;;;;;17.25;11.85;;;-1.80;99.90;;;;;;5086217;28;20208;-73
2021/03/24 05:07:29;;;;;;;21.30;12.77;;;-1.80;99.90;;;;;;5086175;28;20203;-73
2021/03/24 05:09:55;;;;;;;17.73;12.23;;;-1.80;99.90;;;;;;5087819;28;20207;-73
2021/03/24 05:12:26;;;;;;;19.08;12.95;;;-1.90;99.90;;;;;;5086646;28;20264;-73
2021/03/24 05:14:58;;;;;;;15.77;11.30;;;-1.90;99.90;;;;;;5088475;28;20196;-73
2021/03/24 05:17:28;;;;;;;19.83;12.77;;;-1.90;99.90;;;;;;5089651;28;20200;-73
2021/03/24 05:19:59;;;;;;;18.77;12.10;;;-1.90;99.90;;;;;;5088175;28;20222;-72
2021/03/24 05:22:28;;;;;;;19.40;12.15;;;-1.90;99.90;;;;;;5089252;28;20226;-73
2021/03/24 05:25:05;;;;;;;17.88;12.25;;;-2.00;99.90;;;;;;5088589;28;20663;-73
2021/03/24 05:30:07;;;;;;;15.27;10.43;;;-2.00;99.90;;;;;;5007125;28;20689;-71
2021/03/24 05:32:41;;;;;;;17.90;12.00;;;-2.00;99.90;;;;;;4987140;28;20234;-73
2021/03/24 05:35:27;;;;;;;20.45;12.00;;;-2.00;99.90;;;;;;4989455;28;20202;-72
2021/03/24 05:37:53;;;;;;;17.80;11.43;;;-1.90;99.90;;;;;;5002801;28;20681;-74
2021/03/24 05:40:48;;;;;;;24.90;12.65;;;-1.90;99.90;;;;;;5008656;28;20202;-73
2021/03/24 05:43:42;;;;;;;21.15;11.55;;;-1.80;99.90;;;;;;5008971;28;20217;-74
2021/03/24 05:46:23;;;;;;;19.55;13.55;;;-1.80;99.90;;;;;;5008756;28;20210;-73
2021/03/24 05:49:19;;;;;;;17.85;11.40;;;-1.70;99.90;;;;;;5007883;28;20206;-72
2021/03/24 05:52:01;;;;;;;17.70;12.10;;;-1.70;99.90;;;;;;5008191;28;20226;-73
2021/03/24 05:54:42;;;;;;;21.15;11.80;;;-1.70;99.90;;;;;;5007914;28;20206;-74
2021/03/24 05:57:36;;;;;;;18.02;12.40;;;-1.70;99.90;;;;;;5008379;28;20210;-73
2021/03/24 06:00:25;;;;;;;16.85;12.07;;;-1.50;99.90;;;;;;5007546;28;20205;-73
2021/03/24 06:03:06;;;;;;;20.38;12.90;;;-1.30;99.90;;;;;;5008579;28;20222;-73
2021/03/24 06:05:40;;;;;;;17.80;12.80;;;-1.30;99.90;;;;;;5007960;28;20684;-73
2021/03/24 06:08:58;;;;;;;18.98;11.40;;;-1.20;99.90;;;;;;5008912;28;20206;-73
2021/03/24 06:11:59;;;;;;;20.50;12.52;;;-1.10;99.90;;;;;;5008141;28;20600;-72
2021/03/24 06:15:01;;;;;;;19.08;12.20;;;-1.10;99.90;;;;;;4976277;28;20245;-73
2021/03/24 06:17:45;;;;;;;21.45;12.05;;;-1.00;99.90;;;;;;5011657;28;20202;-73
2021/03/24 06:20:23;;;;;;;21.30;13.25;;;-0.90;99.90;;;;;;5011568;28;20202;-73
2021/03/24 06:23:12;;;;;;;17.48;11.40;;;-0.80;99.90;;;;;;5011678;28;20225;-73
2021/03/24 06:25:45;;;;;;;21.15;13.40;;;-0.70;99.90;;;;;;5011848;28;20394;-74
2021/03/24 06:28:37;;;;;;;18.35;12.00;;;-0.60;99.90;;;;;;5016545;28;20270;-73
2021/03/24 06:31:33;;;;;;;19.90;13.32;;;-0.50;99.90;;;;;;5025060;28;20230;-73
2021/03/24 06:34:16;;;;;;;20.23;12.65;;;-0.40;99.90;;;;;;5025451;28;20235;-73
2021/03/24 06:37:18;;;;;;;20.80;12.63;;;-0.30;99.90;;;;;;5042035;28;20204;-72
2021/03/24 06:39:55;;;;;;;20.27;12.57;;;-0.20;99.90;;;;;;5006213;28;20212;-72
2021/03/24 06:42:35;;;;;;;21.63;14.30;;;-0.10;99.90;;;;;;5013812;28;20228;-74
2021/03/24 06:45:41;;;;;;;23.40;13.95;;;0.00;99.90;;;;;;5024849;28;20193;-73
2021/03/24 06:48:32;;;;;;;23.23;14.65;;;0.10;99.90;;;;;;5013506;28;20220;-74
2021/03/24 06:51:34;;;;;;;20.60;14.77;;;0.30;99.90;;;;;;5030677;28;20236;-73
2021/03/24 06:54:24;;;;;;;21.67;14.02;;;0.40;99.90;;;;;;5030674;28;20225;-73
2021/03/24 06:57:31;;;;;;;22.52;13.52;;;0.50;99.90;;;;;;5030929;28;20352;-73
2021/03/24 07:00:22;;;;;;;19.60;12.90;;;0.60;99.90;;;;;;5021906;28;20210;-73
2021/03/24 07:03:42;;;;;;;19.80;13.90;;;0.80;99.90;;;;;;5010605;28;20592;-73
2021/03/24 07:06:30;;;;;;;21.55;15.57;;;1.00;99.90;;;;;;5010715;28;20599;-72
2021/03/24 07:09:09;;;;;;;23.95;14.20;;;1.20;99.90;;;;;;4977019;28;20202;-73
2021/03/24 07:11:50;;;;;;;24.77;14.95;;;1.40;99.90;;;;;;5010398;28;20230;-72
2021/03/24 07:14:33;;;;;;;17.60;13.02;;;1.60;99.90;;;;;;5010185;28;20287;-73
2021/03/24 07:17:45;;;;;;;22.80;15.13;;;1.80;99.90;;;;;;5010697;28;20206;-74
2021/03/24 07:20:43;;;;;;;22.48;15.90;;;2.00;99.90;;;;;;4974234;28;20705;-72
2021/03/24 07:23:33;;;;;;;19.80;13.98;;;2.20;99.90;;;;;;5010718;28;20198;-73
2021/03/24 07:26:04;;;;;;;21.63;15.73;;;2.40;99.90;;;;;;5010485;28;20207;-73
2021/03/24 07:28:44;;;;;;;22.02;15.00;;;2.80;99.90;;;;;;5009548;28;20384;-73
2021/03/24 07:31:55;;;;;;;23.15;14.85;;;3.30;99.90;;;;;;5010221;28;20230;-73
2021/03/24 07:34:37;;;;;;;19.02;13.63;;;3.90;99.90;;;;;;4949558;29;20260;-73
2021/03/24 07:37:27;;;;;;;21.73;13.43;;;4.40;99.90;;;;;;5001724;28;20310;-73
2021/03/24 07:40:21;;;;;;;21.10;13.88;;;4.90;99.90;;;;;;5009602;28;20635;-73
2021/03/24 07:43:12;;;;;;;17.73;13.20;;;5.60;99.90;;;;;;5009657;28;20222;-73
2021/03/24 07:46:17;;;;;;;18.90;13.07;;;6.20;99.90;;;;;;5009830;28;20257;-73
2021/03/24 07:49:19;;;;;;;19.75;12.85;;;6.50;99.90;;;;;;5009462;28;20309;-73
2021/03/24 07:52:04;;;;;;;20.67;14.02;;;7.20;99.90;;;;;;5010043;28;20222;-72
2021/03/24 07:54:34;;;;;;;19.10;12.88;;;7.90;99.90;;;;;;5009748;28;20199;-73
2021/03/24 07:57:12;;;;;;;20.95;13.57;;;8.60;99.90;;;;;;5010031;28;20202;-73
2021/03/24 07:59:45;;;;;;;18.98;12.73;;;9.60;99.90;;;;;;5008921;28;20210;-73
2021/03/24 08:02:28;;;;;;;15.93;11.85;;;10.40;99.90;;;;;;5010631;28;20638;-74
2021/03/24 08:05:11;;;;;;;16.20;12.65;;;11.10;99.80;;;;;;5010474;28;20234;-73
2021/03/24 08:07:43;;;;;;;16.15;11.20;;;11.80;98.20;;;;;;5010224;28;20214;-73
2021/03/24 08:10:25;;;;;;;15.40;12.23;;;12.50;96.40;;;;;;5009726;28;20598;-74
2021/03/24 08:13:16;;;;;;;14.80;10.88;;;13.00;95.20;;;;;;5009778;28;20585;-73
2021/03/24 08:15:59;;;;;;;15.32;11.77;;;13.00;93.60;;;;;;5009514;28;20203;-73
2021/03/24 08:18:39;;;;;;;12.30;10.60;;;12.50;93.30;;;;;;5008825;28;20764;-73
2021/03/24 08:21:13;;;;;;;17.48;11.23;;;12.20;94.60;;;;;;5009622;28;20232;-73
2021/03/24 08:24:01;;;;;;;13.98;11.93;;;12.00;94.20;;;;;;5008836;28;20206;-74
2021/03/24 08:26:33;;;;;;;14.63;11.15;;;11.60;93.70;;;;;;5009274;28;20210;-73
2021/03/24 08:29:16;;;;;;;14.90;12.18;;;11.50;94.80;;;;;;5008749;28;20225;-73
2021/03/24 08:32:18;;;;;;;14.73;11.00;;;11.80;94.10;;;;;;5009148;28;20230;-73
2021/03/24 08:35:06;;;;;;;13.65;9.82;;;12.80;93.30;;;;;;5009059;28;20249;-73
2021/03/24 08:37:56;;;;;;;16.02;11.70;;;13.70;92.90;;;;;;5009115;28;20210;-73
2021/03/24 08:40:44;;;;;;;18.45;10.23;;;13.90;90.90;;;;;;5007437;28;20210;-73
2021/03/24 08:43:27;;;;;;;14.03;10.20;;;14.20;92.20;;;;;;5009580;28;20205;-73
2021/03/24 08:45:57;;;;;;;12.27;10.35;;;15.10;90.70;;;;;;5009250;28;20473;-72
2021/03/24 08:48:33;;;;;;;14.50;10.50;;;15.80;89.30;;;;;;5009207;28;20265;-73
2021/03/24 08:51:08;;;;;;;13.27;10.13;;;16.40;88.50;;;;;;5009317;28;20483;-73
2021/03/24 08:53:43;;;;;;;14.30;10.97;;;17.00;87.10;;;;;;5009354;28;20844;-73
2021/03/24 08:56:22;;;;;;;13.53;10.93;;;17.70;85.60;;;;;;5009395;28;20489;-72
2021/03/24 08:58:58;;;;;;;17.50;12.00;;;18.20;83.30;;;;;;5009168;28;20464;-73
2021/03/24 09:01:52;;;;;;;10.50;9.30;;;18.30;82.20;;;;;;5010962;28;20489;-73
2021/03/24 09:04:43;;;;;;;14.43;9.87;;;18.90;81.20;;;;;;5008703;28;20469;-73
2021/03/24 09:07:24;;;;;;;10.97;9.87;;;18.90;80.30;;;;;;5002295;28;20523;-73
2021/03/24 09:10:10;;;;;;;13.17;10.73;;;19.20;79.30;;;;;;5008198;28;20957;-73
2021/03/24 09:12:41;;;;;;;12.93;10.67;;;19.20;76.90;;;;;;5008923;28;20512;-73
2021/03/24 09:15:15;;;;;;;14.23;10.10;;;18.30;76.90;;;;;;5009519;28;20461;-73
2021/03/24 09:17:57;;;;;;;12.90;10.77;;;18.60;79.20;;;;;;5009230;28;20462;-73
2021/03/24 09:21:00;;;;;;;13.37;10.97;;;19.20;77.40;;;;;;5008667;28;20481;-72
2021/03/24 09:23:51;;;;;;;12.63;10.43;;;20.00;78.30;;;;;;5009052;28;20453;-73
2021/03/24 09:26:54;;;;;;;12.97;10.17;;;20.00;75.80;;;;;;5009460;28;20465;-73
2021/03/24 09:29:42;;;;;;;14.07;11.10;;;20.50;74.70;;;;;;5008179;28;20464;-73
2021/03/24 09:32:19;;;;;;;14.87;11.57;;;20.80;75.30;;;;;;5009267;28;20481;-73
2021/03/24 09:35:04;;;;;;;15.33;12.70;;;21.10;73.00;;;;;;5019406;28;20497;-73
2021/03/24 09:37:34;;;;;;;14.77;11.67;;;21.10;73.40;;;;;;5028812;28;20460;-73
2021/03/24 09:40:05;;;;;;;15.57;11.60;;;21.30;72.20;;;;;;5028458;28;20460;-73
2021/03/24 09:42:37;;;;;;;14.73;11.67;;;21.50;73.40;;;;;;5028753;28;20480;-73
2021/03/24 09:45:15;;;;;;;12.73;11.10;;;22.00;72.30;;;;;;5028688;28;21384;-73
2021/03/24 09:47:51;;;;;;;12.40;11.07;;;22.20;70.80;;;;;;5028451;28;20475;-73
2021/03/24 09:50:27;;;;;;;14.27;10.87;;;22.10;70.70;;;;;;5028488;28;20466;-73
2021/03/24 09:52:57;;;;;;;12.70;10.83;;;22.50;70.80;;;;;;5032714;28;20810;-73
2021/03/24 09:55:27;;;;;;;11.50;10.33;;;22.80;68.70;;;;;;5032504;28;20460;-73
2021/03/24 09:58:23;;;;;;;13.07;11.00;;;22.80;68.60;;;;;;5032573;28;20472;-73
2021/03/24 10:01:00;;;;;;;11.87;10.37;;;22.90;69.50;;;;;;5032092;28;20456;-73
2021/03/24 10:03:38;;;;;;;13.67;11.80;;;23.30;69.00;;;;;;5032446;28;20460;-73
2021/03/24 10:06:07;;;;;;;13.80;11.60;;;23.30;66.40;;;;;;5032517;28;20843;-73
2021/03/24 10:08:36;;;;;;;13.10;11.67;;;22.70;69.50;;;;;;5031231;28;20456;-73
2021/03/24 10:11:07;;;;;;;14.10;11.30;;;22.90;68.80;;;;;;5032095;28;20476;-73
2021/03/24 10:13:44;;;;;;;12.13;10.50;;;23.00;68.30;;;;;;5032088;28;20484;-73
2021/03/24 10:16:15;;;;;;;12.37;10.50;;;23.20;67.80;;;;;;5032542;28;20470;-73
2021/03/24 10:18:46;;;;;;;12.27;11.00;;;23.60;67.00;;;;;;5031086;28;20993;-73
2021/03/24 10:21:17;;;;;;;11.23;10.03;;;23.90;66.70;;;;;;5032087;28;20499;-73
2021/03/24 10:23:45;;;;;;;12.40;10.67;;;24.00;66.00;;;;;;5031501;28;20460;-73
2021/03/24 10:26:16;;;;;;;11.83;9.70;;;23.80;64.70;;;;;;5031411;28;20463;-72
2021/03/24 10:28:50;;;;;;;12.60;11.37;;;23.70;65.50;;;;;;5030613;28;20475;-72
2021/03/24 10:31:21;;;;;;;11.00;9.80;;;24.40;64.60;;;;;;5031337;28;21106;-72
2021/03/24 10:33:51;;;;;;;15.67;10.63;;;25.00;63.60;;;;;;5031391;28;20998;-73
2021/03/24 10:36:23;;;;;;;12.27;10.60;;;25.20;63.30;;;;;;5031110;28;20493;-72
2021/03/24 10:38:53;;;;;;;10.80;9.40;;;25.40;63.20;;;;;;5030874;28;20460;-73
2021/03/24 10:41:30;;;;;;;12.57;10.40;;;25.80;62.30;;;;;;5031259;28;21058;-72
2021/03/24 10:44:10;;;;;;;10.80;9.70;;;25.40;61.90;;;;;;5031194;28;20533;-73
2021/03/24 10:46:40;;;;;;;12.90;10.70;;;25.30;61.30;;;;;;5030702;28;20464;-72
2021/03/24 10:49:14;;;;;;;12.90;10.73;;;24.90;63.10;;;;;;5030514;28;20598;-72
2021/03/24 10:51:52;;;;;;;12.00;9.53;;;25.30;60.60;;;;;;5030332;28;20888;-72
2021/03/24 10:54:21;;;;;;;13.37;10.70;;;25.20;62.50;;;;;;5031313;28;21006;-72
2021/03/24 10:56:59;;;;;;;14.73;10.50;;;25.00;62.80;;;;;;5031378;28;20471;-72
2021/03/24 10:59:34;;;;;;;12.13;9.30;;;25.10;62.40;;;;;;5030712;28;20522;-72
2021/03/24 11:02:14;;;;;;;11.17;10.00;;;24.90;63.30;;;;;;5013933;28;20485;-72
2021/03/24 11:04:47;;;;;;;13.20;10.17;;;25.70;61.00;;;;;;5011190;28;20878;-73
2021/03/24 11:07:19;;;;;;;11.17;9.43;;;26.00;60.10;;;;;;5011591;28;20507;-72
2021/03/24 11:09:51;;;;;;;13.30;10.03;;;26.20;60.60;;;;;;5010910;28;21042;-73
2021/03/24 11:12:21;;;;;;;12.03;10.03;;;27.40;59.80;;;;;;5011331;28;21002;-73
2021/03/24 11:15:00;;;;;;;11.30;9.30;;;26.20;60.20;;;;;;5010974;28;21040;-73
2021/03/24 11:17:32;;;;;;;10.90;9.20;;;26.20;59.10;;;;;;5010941;28;20476;-73
2021/03/24 11:20:02;;;;;;;10.50;8.33;;;27.20;57.80;;;;;;5010819;28;20465;-73
2021/03/24 11:22:36;;;;;;;10.90;9.10;;;28.20;58.20;;;;;;5010533;28;20481;-72
2021/03/24 11:25:05;;;;;;;9.63;8.73;;;28.10;57.30;;;;;;5010301;28;20461;-73
2021/03/24 11:27:38;;;;;;;10.63;9.53;;;27.90;57.10;;;;;;5010006;28;20465;-72
2021/03/24 11:30:25;;;;;;;12.30;9.87;;;27.40;57.00;;;;;;5102660;22;20487;-94
2021/03/24 11:33:00;;;;;;;11.47;8.90;;;27.60;57.20;;;;;;5033772;28;20453;-93
2021/03/24 11:35:32;;;;;;;11.80;9.60;;;27.50;56.50;;;;;;5033526;28;20464;-92
2021/03/24 11:38:08;;;;;;;11.47;8.73;;;27.30;56.60;;;;;;5034558;28;20467;-91
2021/03/24 11:40:41;;;;;;;9.70;8.70;;;27.50;57.10;;;;;;5037081;28;20466;-94
2021/03/24 11:43:15;;;;;;;9.53;8.60;;;27.40;56.60;;;;;;5035102;28;20578;-91
2021/03/24 11:45:44;;;;;;;10.60;7.23;;;27.30;56.60;;;;;;5035848;28;20460;-94
2021/03/24 11:48:45;;;;;;;9.00;8.10;;;27.30;56.10;;;;;;5033879;28;20538;-94
2021/03/24 11:51:21;;;;;;;9.90;8.90;;;27.40;56.80;;;;;;5036725;28;20469;-94
2021/03/24 11:54:23;;;;;;;9.37;8.33;;;26.80;55.50;;;;;;5033848;28;20463;-93
2021/03/24 11:57:00;;;;;;;10.03;8.80;;;26.80;55.70;;;;;;5000144;28;20460;-94
2021/03/24 11:59:35;;;;;;;8.80;7.87;;;26.80;55.50;;;;;;5032861;28;20939;-94
2021/03/24 12:02:35;;;;;;;8.57;7.77;;;26.80;56.40;;;;;;5034431;28;20460;-94
2021/03/24 12:05:20;;;;;;;8.80;7.90;;;26.00;55.90;;;;;;5024243;28;20456;-94
2021/03/24 12:08:09;;;;;;;8.00;7.23;;;26.00;58.10;;;;;;5033863;28;20465;-94
2021/03/24 12:10:37;;;;;;;8.80;7.90;;;26.30;57.80;;;;;;5040487;28;20459;-93
2021/03/24 12:13:36;;;;;;;9.50;8.50;;;26.30;57.80;;;;;;5054852;28;20546;-93
2021/03/24 12:16:05;;;;;;;8.50;7.60;;;26.70;57.90;;;;;;5053866;28;20470;-93
2021/03/24 12:18:47;;;;;;;10.03;8.30;;;27.10;56.70;;;;;;5052846;28;20479;-92
2021/03/24 12:21:24;;;;;;;10.47;8.60;;;26.90;57.30;;;;;;5054177;28;20536;-93
2021/03/24 12:23:52;;;;;;;13.57;9.83;;;27.30;55.90;;;;;;5052740;28;20496;-93
2021/03/24 12:26:25;;;;;;;13.43;11.27;;;26.80;57.40;;;;;;5053513;28;20818;-91
2021/03/24 12:28:55;;;;;;;15.13;10.80;;;26.70;56.10;;;;;;5055325;28;20988;-90
2021/03/24 12:31:24;;;;;;;11.00;9.87;;;26.50;57.20;;;;;;5052888;28;21027;-90
2021/03/24 12:33:57;;;;;;;11.43;10.30;;;26.40;57.00;;;;;;5053198;28;20463;-90
2021/03/24 12:36:26;;;;;;;11.20;10.10;;;26.40;57.70;;;;;;5053799;28;20513;-91
2021/03/24 12:38:58;;;;;;;12.43;10.63;;;26.00;57.20;;;;;;5053864;28;20502;-91
2021/03/24 12:41:43;;;;;;;11.60;9.00;;;25.70;57.70;;;;;;5057330;28;20526;-93
2021/03/24 12:44:19;;;;;;;11.90;10.20;;;26.00;58.70;;;;;;5052342;28;20927;-93
2021/03/24 12:46:49;;;;;;;15.30;10.27;;;26.00;58.00;;;;;;5052735;28;20470;-93
2021/03/24 12:49:18;;;;;;;13.97;11.67;;;26.10;58.10;;;;;;5052318;28;20479;-93
2021/03/24 12:51:54;;;;;;;13.73;11.10;;;25.70;57.70;;;;;;5054435;28;20470;-93
2021/03/24 12:54:22;;;;;;;13.10;10.30;;;25.70;56.80;;;;;;5054197;28;20462;-93
2021/03/24 12:57:11;;;;;;;11.93;10.73;;;25.60;58.90;;;;;;5060267;28;20464;-93
2021/03/24 13:00:04;;;;;;;12.70;11.43;;;26.00;57.40;;;;;;5063717;28;20494;-94
2021/03/24 13:05:44;;;;;;;11.53;10.37;;;25.50;58.20;;;;;;5045088;28;20937;-93
2021/03/24 13:08:19;;;;;;;13.70;11.87;;;25.60;57.80;;;;;;5045331;28;20535;-93
2021/03/24 13:10:50;;;;;;;11.77;10.00;;;25.50;58.50;;;;;;5044347;28;20467;-93
2021/03/24 13:13:38;;;;;;;12.10;10.73;;;25.80;58.30;;;;;;5052454;28;20525;-92
2021/03/24 13:16:10;;;;;;;13.23;10.57;;;26.20;57.80;;;;;;5064128;23;20526;-70
2021/03/24 13:18:38;;;;;;;11.13;9.77;;;26.10;56.40;;;;;;5047781;28;20459;-70
2021/03/24 13:21:24;;;;;;;11.27;10.07;;;25.50;58.70;;;;;;5047784;28;20484;-70
2021/03/24 13:24:01;;;;;;;12.37;10.37;;;25.40;57.80;;;;;;5048370;28;20537;-70
2021/03/24 13:26:31;;;;;;;10.80;9.80;;;24.60;59.70;;;;;;5050064;28;21319;-70